createdAt,value
2023-01-09T00:01:23.322Z,93555.34
2023-01-09T00:03:49.843Z,93444.47
2023-01-09T00:06:16.271Z,93345.53
2023-01-09T00:08:42.637Z,93251.03
2023-01-09T00:11:09.034Z,93213.97
2023-01-09T00:13:35.654Z,93172.50
2023-01-09T00:16:02.017Z,93168.50
2023-01-09T00:18:28.589Z,93166.50
2023-01-09T00:20:55.013Z,93160.53
2023-01-09T00:23:21.603Z,93159.78
2023-01-09T00:25:47.956Z,93180.72
2023-01-09T00:28:14.558Z,93218.00
2023-01-09T00:30:40.931Z,93273.84
2023-01-09T00:33:07.358Z,93294.94
2023-01-09T00:35:33.813Z,93319.66
2023-01-09T00:38:00.413Z,93359.06
2023-01-09T00:40:26.801Z,93356.47
2023-01-09T00:42:55.213Z,93274.97
2023-01-09T00:45:28.595Z,93192.44
2023-01-09T00:47:57.039Z,93111.28
2023-01-09T00:50:24.731Z,93053.66
2023-01-09T00:52:51.483Z,93039.72
2023-01-09T00:55:17.900Z,93028.13
2023-01-09T00:57:44.317Z,93037.53
2023-01-09T01:00:11.305Z,93067.31
2023-01-09T01:02:37.885Z,93077.28
2023-01-09T01:05:23.331Z,93073.28
2023-01-09T01:07:49.797Z,93055.31
2023-01-09T01:10:20.330Z,93030.94
2023-01-09T01:12:47.360Z,93001.00
2023-01-09T01:15:14.023Z,92976.19
2023-01-09T01:17:40.934Z,92990.97
2023-01-09T01:20:09.977Z,93004.94
2023-01-09T01:22:36.529Z,93032.09
2023-01-09T01:25:04.254Z,93042.91
2023-01-09T01:27:30.925Z,93059.69
2023-01-09T01:29:57.260Z,93062.88
2023-01-09T01:32:24.027Z,93063.06
2023-01-09T01:34:50.371Z,93063.69
2023-01-09T01:37:16.962Z,93081.44
2023-01-09T01:39:43.330Z,93108.03
2023-01-09T01:42:12.936Z,93139.63
2023-01-09T01:44:58.343Z,93153.81
2023-01-09T01:47:45.009Z,93163.41
2023-01-09T01:50:25.891Z,93172.78
2023-01-09T01:53:14.219Z,93129.22
2023-01-09T01:55:45.705Z,93070.84
2023-01-09T01:58:14.079Z,93023.22
2023-01-09T02:00:42.932Z,92973.63
2023-01-09T02:03:09.516Z,92934.44
2023-01-09T02:05:36.775Z,92889.25
2023-01-09T02:08:03.626Z,92842.47
2023-01-09T02:10:30.435Z,92791.63
2023-01-09T02:12:56.798Z,92748.47
2023-01-09T02:15:23.223Z,92687.66
2023-01-09T02:18:08.493Z,92632.50
2023-01-09T02:20:43.847Z,92533.13
2023-01-09T02:23:44.138Z,92437.16
2023-01-09T02:26:34.885Z,92351.41
2023-01-09T02:29:30.789Z,92258.41
2023-01-09T02:32:02.924Z,92194.78
2023-01-09T02:34:36.037Z,92129.50
2023-01-09T02:37:02.439Z,92062.69
2023-01-09T02:39:52.262Z,91988.13
2023-01-09T02:42:23.233Z,91934.31
2023-01-09T02:44:50.007Z,91874.31
2023-01-09T02:47:16.367Z,91827.75
2023-01-09T02:49:52.360Z,91764.38
2023-01-09T02:52:21.684Z,91700.41
2023-01-09T02:54:51.123Z,91648.44
2023-01-09T02:57:24.810Z,91592.88
2023-01-09T03:00:07.028Z,91555.91
2023-01-09T03:02:53.538Z,91499.31
2023-01-09T03:05:30.472Z,91426.56
2023-01-09T03:08:01.349Z,91414.56
2023-01-09T03:10:27.693Z,91398.97
2023-01-09T03:12:54.555Z,91356.88
2023-01-09T03:15:22.504Z,91295.53
2023-01-09T03:17:48.873Z,91253.97
2023-01-09T03:20:17.980Z,91244.06
2023-01-09T03:22:58.002Z,91167.69
2023-01-09T03:25:24.675Z,91100.66
2023-01-09T03:27:54.339Z,91042.97
2023-01-09T03:30:20.699Z,90998.28
2023-01-09T03:32:47.070Z,90913.06
2023-01-09T03:35:13.857Z,90863.44
2023-01-09T03:37:40.217Z,90774.31
2023-01-09T03:40:07.466Z,90674.03
2023-01-09T03:42:33.834Z,90625.22
2023-01-09T03:45:00.207Z,90573.00
2023-01-09T03:47:26.838Z,90511.16
2023-01-09T03:49:53.206Z,90398.66
2023-01-09T03:52:19.549Z,90349.81
2023-01-09T03:54:45.905Z,90314.50
2023-01-09T03:57:12.255Z,90270.03
2023-01-09T03:59:39.259Z,90225.59
2023-01-09T04:02:05.926Z,90182.47
2023-01-09T04:04:32.619Z,90145.56
2023-01-09T04:06:58.962Z,90097.22
2023-01-09T04:09:25.499Z,90070.97
2023-01-09T04:11:51.888Z,90038.00
2023-01-09T04:14:18.317Z,90014.59
2023-01-09T04:16:44.694Z,89996.97
2023-01-09T04:19:11.065Z,89964.25
2023-01-09T04:21:37.429Z,89940.41
2023-01-09T04:24:04.109Z,89914.44
2023-01-09T04:26:30.708Z,89906.13
2023-01-09T04:28:57.260Z,89863.50
2023-01-09T04:31:23.693Z,89823.78
2023-01-09T04:33:50.305Z,89784.03
2023-01-09T04:36:16.659Z,89755.47
2023-01-09T04:38:43.251Z,89714.88
2023-01-09T04:41:09.627Z,89640.63
2023-01-09T04:43:36.017Z,89620.59
2023-01-09T04:46:02.678Z,89605.78
2023-01-09T04:48:29.076Z,89583.47
2023-01-09T04:50:55.414Z,89559.03
2023-01-09T04:53:21.858Z,89566.34
2023-01-09T04:55:48.204Z,89525.72
2023-01-09T04:58:14.565Z,89504.38
2023-01-09T05:00:40.958Z,89491.94
2023-01-09T05:03:07.367Z,89473.78
2023-01-09T05:05:33.721Z,89461.84
2023-01-09T05:08:02.998Z,89447.03
2023-01-09T05:10:29.352Z,89425.38
2023-01-09T05:12:55.731Z,89413.75
2023-01-09T05:15:22.102Z,89407.00
2023-01-09T05:17:48.523Z,89385.44
2023-01-09T05:20:15.101Z,89367.75
2023-01-09T05:22:41.450Z,89327.44
2023-01-09T05:25:08.222Z,89332.91
2023-01-09T05:27:34.581Z,89308.47
2023-01-09T05:30:01.004Z,89282.69
2023-01-09T05:32:27.401Z,89278.84
2023-01-09T05:34:53.817Z,89264.31
2023-01-09T05:37:20.246Z,89254.41
2023-01-09T05:39:46.596Z,89243.53
2023-01-09T05:42:12.931Z,89243.25
2023-01-09T05:44:39.540Z,89227.81
2023-01-09T05:47:05.899Z,89239.91
2023-01-09T05:49:32.373Z,89229.94
2023-01-09T05:51:58.747Z,89252.09
2023-01-09T05:54:25.236Z,89241.88
2023-01-09T05:56:51.649Z,89238.19
2023-01-09T05:59:18.200Z,89248.13
2023-01-09T06:01:44.637Z,89259.75
2023-01-09T06:04:11.062Z,89262.06
2023-01-09T06:06:37.492Z,89265.13
2023-01-09T06:09:03.904Z,89251.53
2023-01-09T06:11:30.316Z,89273.41
2023-01-09T06:13:56.707Z,89276.44
2023-01-09T06:16:23.137Z,89289.94
2023-01-09T06:18:50.395Z,89287.00
2023-01-09T06:21:16.757Z,89296.66
2023-01-09T06:23:43.119Z,89310.88
2023-01-09T06:26:09.461Z,89303.84
2023-01-09T06:28:36.059Z,89320.50
2023-01-09T06:31:02.496Z,89302.78
2023-01-09T06:33:29.011Z,89304.31
2023-01-09T06:35:55.368Z,89287.66
2023-01-09T06:38:21.743Z,89273.59
2023-01-09T06:40:48.607Z,89259.84
2023-01-09T06:43:15.173Z,89248.66
2023-01-09T06:45:44.561Z,89227.88
2023-01-09T06:48:11.400Z,89205.56
2023-01-09T06:50:37.807Z,89178.50
2023-01-09T06:53:04.182Z,89172.25
2023-01-09T06:55:30.541Z,89181.25
2023-01-09T06:57:57.169Z,89196.09
2023-01-09T07:00:23.625Z,89241.34
2023-01-09T07:02:49.999Z,89288.13
2023-01-09T07:05:16.654Z,89340.56
2023-01-09T07:07:43.113Z,89437.28
2023-01-09T07:10:09.950Z,89511.00
2023-01-09T07:12:36.519Z,89633.28
2023-01-09T07:15:03.084Z,89741.84
2023-01-09T07:17:29.450Z,89878.06
2023-01-09T07:19:56.078Z,90035.03
2023-01-09T07:22:22.441Z,90190.44
2023-01-09T07:24:48.888Z,90348.50
2023-01-09T07:27:15.471Z,90517.97
2023-01-09T07:29:41.863Z,90709.84
2023-01-09T07:32:08.279Z,90882.44
2023-01-09T07:34:34.885Z,91065.94
2023-01-09T07:37:01.243Z,91261.13
2023-01-09T07:39:27.638Z,91464.59
2023-01-09T07:41:54.219Z,91661.03
2023-01-09T07:44:20.567Z,91889.75
2023-01-09T07:46:46.912Z,92117.16
2023-01-09T07:49:13.275Z,92321.13
2023-01-09T07:51:42.925Z,92497.34
2023-01-09T07:54:10.037Z,92643.72
2023-01-09T07:56:36.607Z,92740.75
2023-01-09T07:59:02.954Z,92820.97
2023-01-09T08:01:29.388Z,92876.13
2023-01-09T08:03:56.081Z,92912.97
2023-01-09T08:06:22.433Z,92938.16
2023-01-09T08:08:49.116Z,92957.34
2023-01-09T08:11:15.755Z,92955.16
2023-01-09T08:13:42.102Z,92968.97
2023-01-09T08:16:08.669Z,92984.16
2023-01-09T08:18:35.182Z,93019.13
2023-01-09T08:21:01.573Z,93100.06
2023-01-09T08:23:27.980Z,93197.41
2023-01-09T08:25:54.611Z,93303.91
2023-01-09T08:28:20.975Z,93410.59
2023-01-09T08:30:47.552Z,93477.97
2023-01-09T08:33:14.291Z,93570.88
2023-01-09T08:35:40.644Z,93611.66
2023-01-09T08:38:07.055Z,93664.78
2023-01-09T08:40:33.620Z,93725.97
2023-01-09T08:43:18.568Z,93761.53
2023-01-09T08:46:03.690Z,93789.09
2023-01-09T08:48:30.043Z,93807.94
2023-01-09T08:50:56.452Z,93829.31
2023-01-09T08:53:22.875Z,93852.34
2023-01-09T08:55:49.564Z,93890.94
2023-01-09T08:58:15.934Z,93917.59
2023-01-09T09:00:42.637Z,93951.97
2023-01-09T09:03:09.232Z,93970.16
2023-01-09T09:05:35.875Z,93993.22
2023-01-09T09:08:03.542Z,94021.63
2023-01-09T09:10:30.420Z,94041.25
2023-01-09T09:12:57.824Z,94062.84
2023-01-09T09:15:25.045Z,94043.22
2023-01-09T09:17:54.379Z,94034.44
2023-01-09T09:20:24.906Z,94039.28
2023-01-09T09:22:51.321Z,94005.13
2023-01-09T09:25:17.835Z,94036.16
2023-01-09T09:27:44.589Z,94060.97
2023-01-09T09:30:11.649Z,94073.00
2023-01-09T09:32:38.656Z,94093.44
2023-01-09T09:35:05.483Z,94088.25
2023-01-09T09:37:31.926Z,94115.50
2023-01-09T09:40:01.450Z,94121.94
2023-01-09T09:43:01.173Z,94120.81
2023-01-09T09:45:47.727Z,94133.25
2023-01-09T09:48:32.559Z,94141.34
2023-01-09T09:51:05.050Z,94213.44
2023-01-09T09:54:13.772Z,94280.72
2023-01-09T09:56:48.398Z,94295.63
2023-01-09T09:59:20.636Z,94335.28
2023-01-09T10:02:02.631Z,94376.59
2023-01-09T10:04:32.044Z,94452.66
2023-01-09T10:07:00.643Z,94502.72
2023-01-09T10:09:49.282Z,94546.00
2023-01-09T10:12:25.247Z,94588.94
2023-01-09T10:14:51.821Z,94607.09
2023-01-09T10:17:50.956Z,94640.22
2023-01-09T10:20:49.193Z,94780.47
2023-01-09T10:23:37.741Z,94874.53
2023-01-09T10:26:46.349Z,94926.28
2023-01-09T10:29:25.865Z,95012.56
2023-01-09T10:32:24.604Z,95052.75
2023-01-09T10:35:04.921Z,95006.56
2023-01-09T10:37:37.029Z,94948.91
2023-01-09T10:40:14.334Z,94991.41
2023-01-09T10:42:44.754Z,94955.72
2023-01-09T10:45:37.109Z,94984.22
2023-01-09T10:48:06.474Z,94998.25
2023-01-09T10:50:37.643Z,94969.28
2023-01-09T10:53:34.648Z,94956.25
2023-01-09T10:56:04.825Z,94958.69
2023-01-09T10:58:31.298Z,94963.06
2023-01-09T11:00:59.464Z,94968.28
2023-01-09T11:03:26.132Z,94936.69
2023-01-09T11:05:55.286Z,94941.72
2023-01-09T11:08:42.655Z,94952.81
2023-01-09T11:11:09.668Z,94982.94
2023-01-09T11:13:38.244Z,95014.84
2023-01-09T11:16:20.233Z,95066.03
2023-01-09T11:18:53.782Z,95022.03
2023-01-09T11:21:26.425Z,95031.31
2023-01-09T11:23:53.552Z,95039.63
2023-01-09T11:26:24.860Z,95044.03
2023-01-09T11:29:07.768Z,95116.53
2023-01-09T11:31:35.309Z,95212.34
2023-01-09T11:34:01.751Z,95293.56
2023-01-09T11:36:28.206Z,95389.50
2023-01-09T11:38:56.038Z,95410.19
2023-01-09T11:41:26.864Z,95425.13
2023-01-09T11:43:57.324Z,95412.78
2023-01-09T11:46:43.820Z,95408.41
2023-01-09T11:49:18.018Z,95318.09
2023-01-09T11:51:44.498Z,95343.72
2023-01-09T11:54:30.693Z,95303.78
2023-01-09T11:56:57.073Z,95335.88
2023-01-09T11:59:26.647Z,95329.03
2023-01-09T12:01:56.471Z,95290.59
2023-01-09T12:04:31.193Z,95347.94
2023-01-09T12:07:21.842Z,95346.31
2023-01-09T12:10:26.956Z,95394.63
2023-01-09T12:13:26.808Z,95400.09
2023-01-09T12:15:59.286Z,95392.94
2023-01-09T12:18:37.759Z,95397.88
2023-01-09T12:21:04.098Z,95509.84
2023-01-09T12:23:55.568Z,95490.13
2023-01-09T12:26:30.927Z,95492.88
2023-01-09T12:29:16.322Z,95455.53
2023-01-09T12:32:00.933Z,95494.94
2023-01-09T12:35:03.074Z,95522.50
2023-01-09T12:37:57.652Z,95564.22
2023-01-09T12:41:07.005Z,95587.25
2023-01-09T12:43:56.797Z,95606.19
2023-01-09T12:46:24.658Z,95629.34
2023-01-09T12:49:09.879Z,95653.66
2023-01-09T12:51:55.274Z,95645.97
2023-01-09T12:54:31.480Z,95616.63
2023-01-09T12:57:01.291Z,95681.53
2023-01-09T12:59:43.266Z,95734.38
2023-01-09T13:02:32.529Z,95654.50
2023-01-09T13:05:01.173Z,95617.44
2023-01-09T13:07:48.801Z,95677.28
2023-01-09T13:10:27.817Z,95661.34
2023-01-09T13:12:54.217Z,95692.34
2023-01-09T13:15:45.320Z,95677.50
2023-01-09T13:18:24.564Z,95651.03
2023-01-09T13:20:53.242Z,95668.25
2023-01-09T13:23:45.122Z,95751.41
2023-01-09T13:26:24.956Z,95777.94
2023-01-09T13:28:54.710Z,95833.44
2023-01-09T13:31:37.147Z,95899.97
2023-01-09T13:34:04.589Z,95883.59
2023-01-09T13:36:36.658Z,95845.50
2023-01-09T13:39:03.337Z,95883.41
2023-01-09T13:41:48.635Z,95853.06
2023-01-09T13:44:18.116Z,95897.72
2023-01-09T13:46:46.358Z,95851.34
2023-01-09T13:49:35.231Z,95865.88
2023-01-09T13:52:02.579Z,95879.34
2023-01-09T13:54:58.267Z,95844.53
2023-01-09T13:57:28.846Z,95872.34
2023-01-09T13:59:59.527Z,95864.09
2023-01-09T14:02:35.266Z,95829.13
2023-01-09T14:05:03.443Z,95797.31
2023-01-09T14:07:30.659Z,95781.09
2023-01-09T14:09:59.204Z,95774.94
2023-01-09T14:12:26.909Z,95758.19
2023-01-09T14:14:54.567Z,95736.47
2023-01-09T14:17:28.819Z,95736.63
2023-01-09T14:19:57.203Z,95701.22
2023-01-09T14:22:28.604Z,95719.47
2023-01-09T14:24:56.582Z,95696.97
2023-01-09T14:27:54.184Z,95736.75
2023-01-09T14:30:28.472Z,95748.84
2023-01-09T14:33:05.072Z,95762.84
2023-01-09T14:35:55.800Z,95805.94
2023-01-09T14:38:28.397Z,95773.28
2023-01-09T14:40:59.414Z,95753.25
2023-01-09T14:43:44.734Z,95756.81
2023-01-09T14:46:14.587Z,95787.28
2023-01-09T14:48:46.051Z,95775.22
2023-01-09T14:51:15.077Z,95749.13
2023-01-09T14:53:41.456Z,95684.91
2023-01-09T14:56:27.549Z,95607.22
2023-01-09T14:59:21.964Z,95694.00
2023-01-09T15:01:52.615Z,95738.00
2023-01-09T15:04:26.303Z,95753.00
2023-01-09T15:06:52.736Z,95770.28
2023-01-09T15:09:28.059Z,95756.59
2023-01-09T15:12:01.944Z,95674.38
2023-01-09T15:14:38.031Z,95624.31
2023-01-09T15:17:04.628Z,95667.81
2023-01-09T15:19:32.082Z,95665.22
2023-01-09T15:21:59.496Z,95703.34
2023-01-09T15:24:29.465Z,95676.63
2023-01-09T15:27:01.219Z,95688.03
2023-01-09T15:29:28.596Z,95708.06
2023-01-09T15:32:03.097Z,95719.31
2023-01-09T15:34:29.570Z,95716.84
2023-01-09T15:36:56.126Z,95750.44
2023-01-09T15:39:44.889Z,95761.06
2023-01-09T15:42:47.104Z,95787.13
2023-01-09T15:45:23.078Z,95780.25
2023-01-09T15:47:49.447Z,95793.47
2023-01-09T15:50:16.755Z,95783.16
2023-01-09T15:52:43.146Z,95809.91
2023-01-09T15:55:35.058Z,95836.00
2023-01-09T15:58:02.434Z,95852.75
2023-01-09T16:00:28.952Z,95850.97
2023-01-09T16:03:10.881Z,95839.00
2023-01-09T16:05:44.740Z,95868.94
2023-01-09T16:08:24.699Z,95805.53
2023-01-09T16:10:53.142Z,95747.78
2023-01-09T16:13:21.315Z,95651.91
2023-01-09T16:15:47.714Z,95578.19
2023-01-09T16:18:15.260Z,95571.91
2023-01-09T16:20:41.998Z,95618.44
2023-01-09T16:23:28.960Z,95654.56
2023-01-09T16:26:14.408Z,95764.28
2023-01-09T16:28:42.320Z,95795.28
2023-01-09T16:31:25.218Z,95806.97
2023-01-09T16:34:04.437Z,95810.97
2023-01-09T16:36:30.920Z,95831.81
2023-01-09T16:38:57.887Z,95829.03
2023-01-09T16:41:42.961Z,95815.34
2023-01-09T16:44:09.856Z,95774.78
2023-01-09T16:46:40.481Z,95748.72
2023-01-09T16:49:23.513Z,95735.56
2023-01-09T16:51:50.765Z,95731.03
2023-01-09T16:54:17.247Z,95731.84
2023-01-09T16:56:44.840Z,95732.81
2023-01-09T16:59:15.151Z,95744.88
2023-01-09T17:01:41.693Z,95762.97
2023-01-09T17:04:14.907Z,95744.88
2023-01-09T17:06:41.727Z,95756.94
2023-01-09T17:09:12.570Z,95777.78
2023-01-09T17:11:39.843Z,95771.72
2023-01-09T17:14:06.626Z,95737.88
2023-01-09T17:16:36.666Z,95668.22
2023-01-09T17:19:03.647Z,95619.13
2023-01-09T17:21:30.686Z,95577.91
2023-01-09T17:24:16.266Z,95530.19
2023-01-09T17:27:02.089Z,95519.25
2023-01-09T17:29:28.955Z,95423.88
2023-01-09T17:31:56.022Z,95275.06
2023-01-09T17:34:22.461Z,95146.94
2023-01-09T17:36:48.839Z,95027.78
2023-01-09T17:39:16.123Z,94894.69
2023-01-09T17:41:42.689Z,94762.63
2023-01-09T17:44:10.256Z,94696.88
2023-01-09T17:46:38.147Z,94633.78
2023-01-09T17:49:06.902Z,94566.97
2023-01-09T17:51:33.366Z,94536.22
2023-01-09T17:53:59.826Z,94484.84
2023-01-09T17:56:30.354Z,94465.50
2023-01-09T17:58:56.790Z,94414.63
2023-01-09T18:01:23.242Z,94387.00
2023-01-09T18:03:50.506Z,94360.97
2023-01-09T18:06:18.617Z,94339.50
2023-01-09T18:08:45.054Z,94307.66
2023-01-09T18:11:14.026Z,94281.66
2023-01-09T18:13:41.153Z,94261.19
2023-01-09T18:16:16.256Z,94241.19
2023-01-09T18:18:42.863Z,94211.16
2023-01-09T18:21:09.436Z,94176.69
2023-01-09T18:23:35.982Z,94157.47
2023-01-09T18:26:06.951Z,94168.69
2023-01-09T18:28:36.011Z,94189.69
2023-01-09T18:31:02.516Z,94235.50
2023-01-09T18:33:28.905Z,94288.34
2023-01-09T18:35:55.671Z,94368.84
2023-01-09T18:38:22.020Z,94465.72
2023-01-09T18:40:48.491Z,94550.94
2023-01-09T18:43:15.466Z,94634.50
2023-01-09T18:45:41.881Z,94713.53
2023-01-09T18:48:09.451Z,94767.50
2023-01-09T18:50:35.825Z,94813.69
2023-01-09T18:53:02.195Z,94836.44
2023-01-09T18:55:28.838Z,94845.53
2023-01-09T18:57:55.824Z,94832.19
2023-01-09T19:00:22.398Z,94846.16
2023-01-09T19:02:48.790Z,94829.88
2023-01-09T19:05:15.982Z,94813.31
2023-01-09T19:07:42.340Z,94810.03
2023-01-09T19:10:09.667Z,94834.72
2023-01-09T19:12:36.033Z,94847.09
2023-01-09T19:15:02.404Z,94852.28
2023-01-09T19:17:28.786Z,94834.88
2023-01-09T19:19:55.159Z,94838.63
2023-01-09T19:22:21.522Z,94817.81
2023-01-09T19:24:47.920Z,94781.94
2023-01-09T19:27:14.284Z,94735.94
2023-01-09T19:29:40.625Z,94678.28
2023-01-09T19:32:08.481Z,94587.13
2023-01-09T19:34:35.384Z,94484.75
2023-01-09T19:37:01.824Z,94398.34
2023-01-09T19:39:28.317Z,94309.47
2023-01-09T19:41:55.956Z,94236.91
2023-01-09T19:44:22.377Z,94144.66
2023-01-09T19:46:48.809Z,94050.13
2023-01-09T19:49:15.166Z,93974.75
2023-01-09T19:51:42.370Z,93913.47
2023-01-09T19:54:09.886Z,93834.53
2023-01-09T19:56:37.951Z,93782.38
2023-01-09T19:59:04.646Z,93734.06
2023-01-09T20:01:32.570Z,93702.06
2023-01-09T20:04:04.784Z,93691.69
2023-01-09T20:06:31.403Z,93681.09
2023-01-09T20:08:59.019Z,93726.38
2023-01-09T20:11:27.317Z,93750.03
2023-01-09T20:13:55.375Z,93754.41
2023-01-09T20:16:23.496Z,93775.19
2023-01-09T20:18:49.917Z,93779.59
2023-01-09T20:23:50.055Z,93769.81
2023-01-09T20:26:17.100Z,93774.00
2023-01-09T20:28:44.240Z,93770.44
2023-01-09T20:31:11.502Z,93768.47
2023-01-09T20:33:37.926Z,93779.03
2023-01-09T20:36:05.192Z,93779.59
2023-01-09T20:38:32.197Z,93766.84
2023-01-09T20:40:58.617Z,93752.88
2023-01-09T20:43:25.067Z,93734.06
2023-01-09T20:45:51.413Z,93718.84
2023-01-09T20:48:17.839Z,93700.28
2023-01-09T20:50:44.278Z,93674.50
2023-01-09T20:53:10.683Z,93607.34
2023-01-09T20:55:37.082Z,93557.97
2023-01-09T20:58:03.438Z,93497.84
2023-01-09T21:00:32.081Z,93448.25
2023-01-09T21:02:59.263Z,93367.28
2023-01-09T21:05:25.756Z,93309.72
2023-01-09T21:07:52.254Z,93268.72
2023-01-09T21:10:18.756Z,93222.78
2023-01-09T21:12:45.105Z,93181.59
2023-01-09T21:15:15.202Z,93137.03
2023-01-09T21:17:41.579Z,93092.28
2023-01-09T21:20:10.521Z,93065.69
2023-01-09T21:22:37.074Z,93022.53
2023-01-09T21:25:03.875Z,92978.94
2023-01-09T21:27:35.386Z,92950.97
2023-01-09T21:30:02.303Z,92919.78
2023-01-09T21:32:29.281Z,92883.41
2023-01-09T21:34:55.653Z,92857.84
2023-01-09T21:37:22.101Z,92828.69
2023-01-09T21:39:48.451Z,92804.28
2023-01-09T21:42:33.518Z,92795.53
2023-01-09T21:45:18.195Z,92770.34
2023-01-09T21:47:44.568Z,92763.94
2023-01-09T21:50:10.908Z,92741.59
2023-01-09T21:52:37.492Z,92744.00
2023-01-09T21:55:04.117Z,92725.19
2023-01-09T21:57:30.483Z,92700.19
2023-01-09T21:59:56.833Z,92686.38
2023-01-09T22:02:23.281Z,92694.81
2023-01-09T22:04:49.630Z,92695.59
2023-01-09T22:07:16.345Z,92706.00
2023-01-09T22:09:44.332Z,92709.19
2023-01-09T22:12:11.851Z,92731.56
2023-01-09T22:14:39.616Z,92777.09
2023-01-09T22:17:06.123Z,92791.47
2023-01-09T22:19:32.625Z,92813.06
2023-01-09T22:21:59.927Z,92831.47
2023-01-09T22:24:26.373Z,92848.25
2023-01-09T22:26:52.772Z,92847.63
2023-01-09T22:29:19.172Z,92853.81
2023-01-09T22:31:45.734Z,92865.22
2023-01-09T22:34:16.515Z,92879.81
2023-01-09T22:36:43.781Z,92907.00
2023-01-09T22:39:11.789Z,92936.97
2023-01-09T22:41:38.132Z,92958.16
2023-01-09T22:44:04.874Z,92983.72
2023-01-09T22:46:32.131Z,93042.09
2023-01-09T22:48:58.526Z,93097.06
2023-01-09T22:51:24.936Z,93170.81
2023-01-09T22:53:51.312Z,93254.56
2023-01-09T22:56:19.344Z,93316.13
2023-01-09T22:58:52.633Z,93376.69
2023-01-09T23:01:19.128Z,93432.25
2023-01-09T23:03:45.868Z,93493.81
2023-01-09T23:06:14.020Z,93566.59
2023-01-09T23:08:40.604Z,93615.78
2023-01-09T23:11:09.579Z,93685.31
2023-01-09T23:13:36.083Z,93743.28
2023-01-09T23:16:02.682Z,93790.50
2023-01-09T23:18:29.252Z,93834.84
2023-01-09T23:21:05.379Z,93870.44
2023-01-09T23:23:32.061Z,93915.59
2023-01-09T23:26:00.249Z,93980.22
2023-01-09T23:28:26.722Z,94047.78
2023-01-09T23:30:53.204Z,94100.75
2023-01-09T23:33:22.545Z,94151.75
2023-01-09T23:35:49.042Z,94188.66
2023-01-09T23:38:15.756Z,94226.19
2023-01-09T23:40:42.313Z,94273.34
2023-01-09T23:43:12.683Z,94304.16
2023-01-09T23:45:43.102Z,94328.38
2023-01-09T23:48:11.262Z,94360.38
2023-01-09T23:50:37.642Z,94385.88
2023-01-09T23:53:04.345Z,94414.47
2023-01-09T23:55:31.825Z,94430.88
2023-01-09T23:57:58.204Z,94460.63
